Ituzaingo, Argentina
Current Conditions -  °F | °C
As of 6:00 PM on Tuesday 21 Oct 2014 (Local Time) from SARP Reporting Station
Clear Clear  
Wind Chill: 82°   Ceiling: Unl
Heat Index: 82°   Visibility: 6mi
Dew Point: 43°   Wind: 9mph
Humidity: 25%   Direction: 160°SSE
Pressure: 30.03"   Gusts: NA
Location:  27.6°S, 56.68°W
Report Text: SARP 212100Z 16008KT 9999 28/06 Q1017
Loading
Personal Weather Stations






























Interactive Weather Map
Tropical Storm Tracking
New forecast layout! Learn more

10-Day Weather Forecast

Advertisements
Track Severe Weather on mobile